Lake Milton, OH (44429)

11:57 EDT le 20 septembre 2014 (GMT -0400)
OHDOT 91-IR76 MAH/POR | Change Station
CLOSE
Current Station
Stations météorologiques personnelles
Location: Diamond, OH
Altitude: 989 ft
Stations météo à proximité

Alt. 989 ft 41.10 °N, 81.02 °W | Updated 24 minutes ago

Nuageux
Nuageux
72 ° F
Paraît 76 ° F
N
8
Vent Variable Vent de SSO
Gusts 16.0 mph

Aujourd'hui
Haut(e) -- | Bas -- ° F
--% Risque de précip.
Hier
Haut(e) -- | Bas -- ° F
Precip. -- pouce
7:09 AM 7:24 PM
Lune descendante, 12% visible
Pression 30.08 pouce
Visibilité 10.0 Miles terrestres
Nuages Nuages épars 4300 ft
indice de chaleur 76 ° F
Point de rosée 59 ° F
Humidité 63%
Précipitations -999.00 pouce
Profondeur de la couche neigeuse Non disponible.
UV 5 sur 12
Pollen 5.00 sur 12
Ozone Bon
PM2.5 Moyen
Flu Activity Non disponible.
METAR KPOV 201535Z AUTO 23007KT 10SM SCT043 21/15 A3008 RMK AO2 T02120146

More Conditions Fewer Conditions

Pression 30.08 pouce
Visibilité 10.0 Miles terrestres
Nuages Nuages épars 4300 ft
indice de chaleur 76 ° F
Point de rosée 59 ° F
Humidité 63%
Précipitations -999.00 pouce
Profondeur de la couche neigeuse Non disponible.
UV 5 sur 12
Pollen 5.00 sur 12
Ozone Bon
PM2.5 Moyen
Flu Activity Non disponible.
METAR KPOV 201535Z AUTO 23007KT 10SM SCT043 21/15 A3008 RMK AO2 T02120146

More Conditions Fewer Conditions

10-Day Weather Forecast

Almanac

Astronomie

Sep. 20, 2014 Lever Coucher
Temps réel 07:09 EDT 19:24 EDT
Crépuscule civil 06:41 EDT 19:51 EDT
Crépuscule nautique 06:09 EDT 20:24 EDT
Crépuscule astronomique 05:36 EDT 20:57 EDT
Lune 03:45 EDT 17:28 EDT
Durée de lumière visible 13h 10m
Longueur du jour
12h 15m
Tomorrow will be 2m 42s shorter.
Lune descendante, 12% of the Moon is Illuminated
Aujourd'hui
Lune descendante
Sep 24
Nouveau
Oct 1
Premier quartier
Oct 8
Pleine lune
Oct 15
Dernier quartier

Extrêmes aujourd'hui

State Highs State Lows

Community

WunderPhotos

Upload Photos

1,754,883 Photos téléchargées !

Nearby

Qualité de l'air

  Qualité de l'air Indice de la qualité de l'air Polluant
Hier Moyen
PM2.5
Hier Bon
OZONE
Actuel Moyen
PM2.5
Actuel Bon
OZONE
samedi Moyen
PM2.5
samedi Bon
OZONE
dimanche Bon
OZONE
dimanche Bon
PM2.5
lundi Bon
OZONE
lundi Bon
PM2.5
mardi Bon
OZONE
mardi Bon
PM2.5
mercredi Bon
OZONE
mercredi Bon
PM2.5

Épaisseur de neige

Station Depth Altitude
Pas de nouvelles chutes de neige

Activité sismique

Ville Distance Mag. Time & Date
No recent earthquake activity has been reported nearby.
Minimum magnitude displayed is 2.5.

Températures des eaux côtières

Lieu Température
Aucun rapport de station

Stations météo à proximité